• Join FlightAware (Why Join?)
  • Login
  • US Flag 
01:41AM EDT


 

Airport Tracker/Info


-or-


 

Live Flight TrackerFlight Track Log ✈ LOG6852 ✈ 26-Aug-2013 ✈ EGPR / BRR - EGPF / GLA

Flight Track Log - Related Links

Times and Time Zones

All times are in EDT time to prevent confusion due to time zone crossing. See the LOG6852 flight status page for this flight to view local times or setup timezone preferences in your user account.

Time Position Orientation Groundspeed Altitude Reporting Facility
EDT Latitude Longitude Course Direction KTS MPH feet Rate Location/Type
08:06AM 57.0140 -7.4300 91° East 1 1 300  Level FlightAware UK
08:07AM 57.0136 -7.3962 91° East 1 1 700 660 Climbing FlightAware UK
08:07AM 57.0028 -7.3719 129° Southeast 1 1 1,100 720 Climbing FlightAware UK
08:08AM 56.9910 -7.3517 137° Southeast 1 1 1,600 660 Climbing FlightAware UK
08:09AM 56.9817 -7.3249 123° Southeast 1 1 1,900 660 Climbing FlightAware UK
08:09AM 56.9731 -7.2980 120° Southeast 1 1 2,400 660 Climbing FlightAware UK
08:10AM 56.9636 -7.2703 122° Southeast 1 1 2,700 660 Climbing FlightAware UK
08:10AM 56.9524 -7.2428 127° Southeast 1 1 3,200 660 Climbing FlightAware UK
08:11AM 56.9417 -7.2139 124° Southeast 1 1 3,500 540 Climbing FlightAware UK
08:12AM 56.9312 -7.1838 122° Southeast 1 1 3,900 540 Climbing FlightAware UK
08:12AM 56.9189 -7.1504 124° Southeast 1 1 4,200 540 Climbing FlightAware UK
08:13AM 56.9048 -7.1176 128° Southeast 1 1 4,600 660 Climbing FlightAware UK
08:13AM 56.8920 -7.0847 125° Southeast 1 1 5,000 360 Climbing FlightAware UK
08:14AM 56.8799 -7.0507 123° Southeast 1 1 5,100 360 Climbing FlightAware UK
08:15AM 56.8675 -7.0160 123° Southeast 1 1 5,500 480 Climbing FlightAware UK
08:15AM 56.8549 -6.9823 124° Southeast 1 1 5,700 360 Climbing FlightAware UK
08:16AM 56.8424 -6.9486 124° Southeast 1 1 6,000 360 Climbing FlightAware UK
08:16AM 56.8294 -6.9140 124° Southeast 1 1 6,200 360 Climbing FlightAware UK
08:17AM 56.8162 -6.8795 125° Southeast 1 1 6,500 360 Climbing FlightAware UK
08:18AM 56.8033 -6.8448 124° Southeast 1 1 6,700 300 Climbing FlightAware UK
08:18AM 56.7912 -6.8092 122° Southeast 1 1 6,900 360 Climbing FlightAware UK
08:19AM 56.7783 -6.7732 123° Southeast 1 1 7,200 360 Climbing FlightAware UK
08:19AM 56.7647 -6.7376 125° Southeast 1 1 7,400 240 Climbing FlightAware UK
08:20AM 56.7509 -6.7016 125° Southeast 1 1 7,500 120 Climbing FlightAware UK
08:21AM 56.7360 -6.6626 125° Southeast 1 1 7,600 60 Climbing FlightAware UK
08:21AM 56.7217 -6.6236 124° Southeast 1 1 7,600  Level FlightAware UK
08:22AM 56.7076 -6.5839 123° Southeast 1 1 7,600  Level FlightAware UK
08:22AM 56.6936 -6.5439 123° Southeast 1 1 7,600  Level FlightAware UK
08:23AM 56.6798 -6.5045 123° Southeast 1 1 7,600 -120 Level FlightAware UK
08:24AM 56.6660 -6.4649 122° Southeast 1 1 7,500  Descending FlightAware UK
08:24AM 56.6519 -6.4253 123° Southeast 1 1 7,600 60 Climbing FlightAware UK
08:25AM 56.6376 -6.3863 124° Southeast 1 1 7,600 -120 Level FlightAware UK
08:25AM 56.6231 -6.3476 124° Southeast 1 1 7,500  Descending FlightAware UK
08:26AM 56.6089 -6.3084 123° Southeast 1 1 7,600 60 Climbing FlightAware UK
08:27AM 56.5951 -6.2691 123° Southeast 1 1 7,600 -120 Level FlightAware UK
08:27AM 56.5809 -6.2303 124° Southeast 1 1 7,500 -120 Descending FlightAware UK
08:28AM 56.5655 -6.1930 127° Southeast 1 1 7,500  Level FlightAware UK
08:28AM 56.5502 -6.1563 127° Southeast 1 1 7,500 60 Level FlightAware UK
08:29AM 56.5351 -6.1188 126° Southeast 1 1 7,600 60 Climbing FlightAware UK
08:30AM 56.5205 -6.0808 125° Southeast 1 1 7,600  Level FlightAware UK
08:30AM 56.5060 -6.0427 125° Southeast 1 1 7,600 -120 Level FlightAware UK
08:31AM 56.4911 -6.0049 126° Southeast 1 1 7,500  Descending FlightAware UK
08:31AM 56.4765 -5.9669 125° Southeast 1 1 7,600 60 Climbing FlightAware UK
08:32AM 56.4617 -5.9294 125° Southeast 1 1 7,600  Level FlightAware UK
08:33AM 56.4469 -5.8917 125° Southeast 1 1 7,600 -120 Level FlightAware UK
08:33AM 56.4321 -5.8532 125° Southeast 1 1 7,500  Descending FlightAware UK
08:34AM 56.4170 -5.8149 125° Southeast 1 1 7,600 60 Climbing FlightAware UK
08:34AM 56.4024 -5.7764 124° Southeast 1 1 7,600 -120 Level FlightAware UK
08:35AM 56.3877 -5.7374 124° Southeast 1 1 7,500  Descending FlightAware UK
08:36AM 56.3719 -5.6997 127° Southeast 1 1 7,600 60 Climbing FlightAware UK
08:36AM 56.3570 -5.6619 125° Southeast 1 1 7,600  Level FlightAware UK
08:37AM 56.3426 -5.6230 124° Southeast 1 1 7,600  Level FlightAware UK
08:37AM 56.3283 -5.5836 123° Southeast 1 1 7,600  Level FlightAware UK
08:38AM 56.3159 -5.5508 124° Southeast 1 1 7,600  Level FlightAware UK
08:39AM 56.2956 -5.4985 125° Southeast 1 1 7,600 -120 Level FlightAware UK
08:40AM 56.2732 -5.4397 124° Southeast 1 1 7,400 -180 Descending FlightAware UK
08:40AM 56.2557 -5.3944 125° Southeast 1 1 7,400  Level FlightAware UK
08:41AM 56.2272 -5.3183 124° Southeast 1 1 7,500 -60 Climbing FlightAware UK
08:42AM 56.2127 -5.2809 125° Southeast 1 1 7,300 -360 Descending FlightAware UK
08:43AM 56.1857 -5.2134 126° Southeast 1 1 7,000 -120 Descending FlightAware UK
08:44AM 56.1707 -5.1753 125° Southeast 1 1 7,200 60 Climbing FlightAware UK
08:44AM 56.1649 -5.1297 103° East 1 1 7,100 -120 Descending FlightAware UK
08:45AM 56.1597 -5.0839 102° East 1 1 7,100 -360 Level FlightAware UK
08:46AM 56.1516 -5.0112 101° East 1 1 6,600 -420 Descending FlightAware UK
08:47AM 56.1405 -4.9044 101° East 1 1 6,200 -420 Descending FlightAware UK
08:48AM 56.1352 -4.8552 101° East 1 1 5,900 -540 Descending FlightAware UK
08:48AM 56.1297 -4.8048 101° East 1 1 5,600 -420 Descending FlightAware UK
08:49AM 56.1248 -4.7536 100° East 1 1 5,400 -420 Descending FlightAware UK
08:49AM 56.1203 -4.7028 99° East 1 1 5,100 -540 Descending FlightAware UK
08:50AM 56.1153 -4.6536 100° East 1 1 4,800 -240 Descending FlightAware UK
08:51AM 56.1103 -4.5991 99° East 1 1 4,800 60 Level FlightAware UK
08:52AM 56.1060 -4.5381 97° East 1 1 4,900  Climbing FlightAware UK
08:53AM 56.0869 -4.4477 111° Southeast 1 1 4,800 -120 Descending FlightAware UK
08:54AM 56.0737 -4.3934 114° Southeast 1 1 4,700 -120 Descending FlightAware UK
08:54AM 56.0637 -4.3523 113° Southeast 1 1 4,700 -360 Level FlightAware UK
08:55AM 56.0491 -4.2948 114° Southeast 1 1 4,200 -660 Descending FlightAware UK
08:56AM 56.0308 -4.2208 114° Southeast 1 1 3,600 -600 Descending FlightAware UK
08:57AM 56.0106 -4.2019 152° Southeast 1 1 3,300 -360 Descending FlightAware UK
08:58AM 55.9755 -4.2386 210° Southwest 1 1 3,000 -720 Descending FlightAware UK
08:59AM 55.9488 -4.2900 227° Southwest 1 1 1,900 -1,080 Descending FlightAware UK
08:59AM 55.9298 -4.3255 226° Southwest 1 1 1,200 -780 Descending FlightAware UK
09:00AM 55.9161 -4.3510 226° Southwest 1 1 900 -600 Descending FlightAware UK
09:01AM 55.9038 -4.3732 225° Southwest 1 1 500 -540 Descending FlightAware UK
09:01AM 55.8935 -4.3932 227° Southwest 1 1 200 -480 Descending FlightAware UK